createdAt,value
2018-11-27T00:00:22.734Z,30.97
2018-11-27T00:02:50.699Z,31.40
2018-11-27T00:05:18.726Z,30.92
2018-11-27T00:07:46.719Z,34.53
2018-11-27T00:10:14.678Z,35.33
2018-11-27T00:12:42.663Z,37.67
2018-11-27T00:15:12.187Z,41.00
2018-11-27T00:17:40.172Z,39.78
2018-11-27T00:20:09.509Z,38.95
2018-11-27T00:22:37.851Z,43.78
2018-11-27T00:25:08.973Z,43.80
2018-11-27T00:27:37.009Z,49.18
2018-11-27T00:30:06.861Z,43.42
2018-11-27T00:32:34.883Z,52.70
2018-11-27T00:35:02.882Z,42.07
2018-11-27T00:37:30.856Z,46.20
2018-11-27T00:39:59.226Z,48.05
2018-11-27T00:42:27.177Z,49.05
2018-11-27T00:44:55.174Z,46.10
2018-11-27T00:47:23.166Z,44.38
2018-11-27T00:49:51.529Z,47.30
2018-11-27T00:52:19.541Z,58.45
2018-11-27T00:54:47.574Z,51.08
2018-11-27T00:57:15.578Z,55.30
2018-11-27T00:59:43.586Z,50.50
2018-11-27T01:02:11.563Z,48.00
2018-11-27T01:04:40.375Z,47.08
2018-11-27T01:07:08.408Z,53.68
2018-11-27T01:09:36.347Z,44.10
2018-11-27T01:12:04.383Z,44.88
2018-11-27T01:14:32.348Z,46.73
2018-11-27T01:17:00.347Z,40.85
2018-11-27T01:19:28.323Z,45.05
2018-11-27T01:21:56.315Z,47.77
2018-11-27T01:24:24.291Z,48.33
2018-11-27T01:26:52.275Z,52.03
2018-11-27T01:29:20.252Z,46.77
2018-11-27T01:31:48.227Z,44.38
2018-11-27T01:34:16.224Z,54.70
2018-11-27T01:36:44.208Z,48.75
2018-11-27T01:39:12.182Z,51.92
2018-11-27T01:41:40.186Z,44.70
2018-11-27T01:44:08.153Z,44.80
2018-11-27T01:46:36.193Z,48.23
2018-11-27T01:49:04.185Z,50.65
2018-11-27T01:51:32.169Z,49.80
2018-11-27T01:54:00.126Z,47.67
2018-11-27T01:56:28.096Z,43.20
2018-11-27T01:58:56.173Z,48.38
2018-11-27T02:01:24.143Z,48.25
2018-11-27T02:03:52.110Z,45.12
2018-11-27T02:06:20.071Z,49.63
2018-11-27T02:08:48.054Z,47.88
2018-11-27T02:11:16.010Z,48.17
2018-11-27T02:13:43.981Z,44.25
2018-11-27T02:16:11.946Z,45.88
2018-11-27T02:18:39.937Z,46.30
2018-11-27T02:21:07.929Z,43.42
2018-11-27T02:23:35.893Z,50.83
2018-11-27T02:26:03.936Z,51.70
2018-11-27T02:28:31.912Z,48.02
2018-11-27T02:30:59.956Z,43.87
2018-11-27T02:33:27.942Z,45.92
2018-11-27T02:35:56.502Z,46.88
2018-11-27T02:38:24.503Z,48.02
2018-11-27T02:40:52.482Z,50.30
2018-11-27T02:43:20.477Z,51.00
2018-11-27T02:45:48.427Z,44.75
2018-11-27T02:48:16.411Z,50.43
2018-11-27T02:50:44.380Z,48.48
2018-11-27T02:53:12.412Z,47.40
2018-11-27T02:55:40.418Z,51.13
2018-11-27T02:58:08.387Z,47.93
2018-11-27T03:00:36.514Z,43.25
2018-11-27T03:03:04.893Z,47.27
2018-11-27T03:05:35.019Z,50.10
2018-11-27T03:08:03.071Z,48.28
2018-11-27T03:10:31.147Z,54.00
2018-11-27T03:12:59.104Z,45.58
2018-11-27T03:15:27.087Z,55.12
2018-11-27T03:17:55.285Z,47.38
2018-11-27T03:20:23.254Z,49.93
2018-11-27T03:22:51.796Z,55.75
2018-11-27T03:25:20.805Z,51.37
2018-11-27T03:27:49.796Z,49.65
2018-11-27T03:30:19.787Z,54.03
2018-11-27T03:32:47.739Z,53.73
2018-11-27T03:35:16.702Z,53.73
2018-11-27T03:37:45.155Z,48.92
2018-11-27T03:40:14.583Z,46.73
2018-11-27T03:42:42.573Z,54.23
2018-11-27T03:45:12.755Z,51.30
2018-11-27T03:47:40.728Z,54.42
2018-11-27T03:50:39.917Z,49.05
2018-11-27T03:53:07.881Z,50.85
2018-11-27T03:55:36.474Z,56.25
2018-11-27T03:58:04.562Z,51.68
2018-11-27T04:00:32.532Z,55.75
2018-11-27T04:03:06.927Z,57.70
2018-11-27T04:05:35.023Z,53.70
2018-11-27T04:08:03.670Z,52.75
2018-11-27T04:10:31.677Z,50.45
2018-11-27T04:12:59.622Z,53.20
2018-11-27T04:20:39.829Z,54.25
2018-11-27T04:23:07.768Z,56.28
2018-11-27T04:25:35.735Z,61.68
2018-11-27T04:28:04.674Z,57.90
2018-11-27T04:30:32.594Z,58.55
2018-11-27T04:33:00.557Z,57.03
2018-11-27T04:35:28.535Z,57.30
2018-11-27T04:37:56.500Z,54.48
2018-11-27T04:40:24.478Z,55.70
2018-11-27T04:42:53.119Z,62.58
2018-11-27T04:45:22.670Z,59.20
2018-11-27T04:47:50.638Z,53.55
2018-11-27T04:50:19.117Z,66.28
2018-11-27T04:52:47.068Z,63.75
2018-11-27T04:55:15.874Z,72.55
2018-11-27T04:57:44.519Z,66.70
2018-11-27T05:00:14.663Z,56.98
2018-11-27T05:02:42.632Z,57.58
2018-11-27T05:05:10.754Z,57.93
2018-11-27T05:07:38.790Z,61.20
2018-11-27T05:10:12.928Z,61.65
2018-11-27T05:12:41.278Z,52.88
2018-11-27T05:15:13.543Z,59.30
2018-11-27T05:17:41.820Z,59.45
2018-11-27T05:20:10.808Z,56.28
2018-11-27T05:22:38.769Z,60.65
2018-11-27T05:25:08.701Z,64.35
2018-11-27T05:27:36.679Z,63.20
2018-11-27T05:30:09.679Z,66.07
2018-11-27T05:32:37.679Z,63.87
2018-11-27T05:35:06.812Z,67.95
2018-11-27T05:37:34.803Z,67.95
2018-11-27T05:40:04.097Z,67.10
2018-11-27T05:42:32.242Z,69.10
2018-11-27T05:45:00.290Z,63.52
2018-11-27T05:47:28.258Z,64.03
2018-11-27T05:49:56.279Z,67.08
2018-11-27T05:52:24.284Z,57.48
2018-11-27T05:54:52.291Z,64.65
2018-11-27T05:57:21.194Z,69.00
2018-11-27T05:59:48.306Z,65.62
2018-11-27T06:02:16.387Z,60.58
2018-11-27T06:04:44.321Z,61.83
2018-11-27T06:07:12.303Z,71.00
2018-11-27T06:09:40.283Z,59.00
2018-11-27T06:12:08.248Z,64.40
2018-11-27T06:14:36.201Z,64.80
2018-11-27T06:17:04.186Z,68.83
2018-11-27T06:19:32.148Z,60.55
2018-11-27T06:22:00.176Z,70.57
2018-11-27T06:24:28.135Z,59.58
2018-11-27T06:26:56.195Z,59.83
2018-11-27T06:29:24.190Z,71.80
2018-11-27T06:31:52.206Z,66.92
2018-11-27T06:34:20.170Z,66.45
2018-11-27T06:36:48.166Z,67.50
2018-11-27T06:39:16.194Z,73.83
2018-11-27T06:41:44.296Z,89.22
2018-11-27T06:44:12.267Z,73.02
2018-11-27T06:46:40.229Z,66.17
2018-11-27T06:49:08.308Z,70.20
2018-11-27T06:51:36.264Z,73.00
2018-11-27T06:54:04.418Z,63.85
2018-11-27T06:56:32.407Z,82.02
2018-11-27T06:59:00.346Z,91.32
2018-11-27T07:01:28.311Z,76.07
2018-11-27T07:03:56.336Z,74.07
2018-11-27T07:06:24.317Z,77.90
2018-11-27T07:08:52.266Z,77.97
2018-11-27T07:11:20.233Z,69.20
2018-11-27T07:13:48.304Z,68.72
2018-11-27T07:16:16.276Z,73.15
2018-11-27T07:18:44.265Z,72.12
2018-11-27T07:21:12.215Z,69.22
2018-11-27T07:23:40.285Z,74.53
2018-11-27T07:26:08.230Z,74.50
2018-11-27T07:28:36.222Z,67.67
2018-11-27T07:31:05.314Z,78.62
2018-11-27T07:33:33.318Z,67.67
2018-11-27T07:36:01.283Z,78.00
2018-11-27T07:38:29.298Z,78.10
2018-11-27T07:40:57.344Z,78.40
2018-11-27T07:43:25.367Z,78.85
2018-11-27T07:45:55.341Z,79.00
2018-11-27T07:48:21.603Z,74.92
2018-11-27T07:50:49.663Z,74.00
2018-11-27T07:53:17.763Z,78.97
2018-11-27T07:55:45.731Z,80.12
2018-11-27T07:58:13.744Z,74.75
2018-11-27T08:00:41.691Z,79.17
2018-11-27T08:03:09.775Z,74.12
2018-11-27T08:05:39.156Z,67.70
2018-11-27T08:08:10.804Z,85.45
2018-11-27T08:10:38.761Z,74.67
2018-11-27T08:13:07.561Z,77.65
2018-11-27T08:15:35.521Z,77.37
2018-11-27T08:18:03.583Z,87.05
2018-11-27T08:20:32.477Z,69.17
2018-11-27T08:23:00.537Z,71.87
2018-11-27T08:25:28.528Z,79.05
2018-11-27T08:27:56.683Z,70.47
2018-11-27T08:30:24.977Z,75.95
2018-11-27T08:32:53.947Z,76.97
2018-11-27T08:35:23.076Z,73.40
2018-11-27T08:37:52.250Z,73.55
2018-11-27T08:40:21.374Z,72.35
2018-11-27T08:42:49.643Z,73.83
2018-11-27T08:45:18.621Z,84.30
2018-11-27T08:47:47.623Z,80.03
2018-11-27T08:50:16.727Z,80.25
2018-11-27T08:52:47.113Z,77.03
2018-11-27T08:55:22.372Z,86.53
2018-11-27T08:57:50.433Z,80.32
2018-11-27T09:00:19.352Z,77.15
2018-11-27T09:02:47.399Z,79.92
2018-11-27T09:05:15.531Z,88.45
2018-11-27T09:07:43.955Z,86.08
2018-11-27T09:10:13.589Z,85.80
2018-11-27T09:12:41.642Z,80.60
2018-11-27T09:15:11.256Z,94.22
2018-11-27T09:17:39.712Z,88.67
2018-11-27T09:20:09.455Z,85.07
2018-11-27T09:22:37.448Z,96.85
2018-11-27T09:25:07.830Z,90.47
2018-11-27T09:27:35.838Z,88.15
2018-11-27T09:30:05.915Z,85.85
2018-11-27T09:32:33.964Z,96.25
2018-11-27T09:35:02.032Z,94.50
2018-11-27T09:37:30.017Z,101.33
2018-11-27T09:39:58.102Z,95.97
2018-11-27T09:42:26.202Z,95.05
2018-11-27T09:44:54.175Z,84.62
2018-11-27T09:47:22.141Z,98.82
2018-11-27T09:49:50.251Z,96.57
2018-11-27T09:52:18.295Z,93.37
2018-11-27T09:54:46.257Z,97.20
2018-11-27T09:57:14.211Z,109.80
2018-11-27T09:59:42.215Z,119.60
2018-11-27T10:02:10.163Z,113.17
2018-11-27T10:04:38.151Z,103.58
2018-11-27T10:07:06.143Z,91.57
2018-11-27T10:09:34.106Z,101.55
2018-11-27T10:12:02.220Z,92.22
2018-11-27T10:14:30.159Z,103.50
2018-11-27T10:16:58.170Z,109.70
2018-11-27T10:19:27.604Z,93.78
2018-11-27T10:21:54.157Z,98.17
2018-11-27T10:24:22.121Z,96.78
2018-11-27T10:26:51.011Z,96.75
2018-11-27T10:29:18.958Z,88.42
2018-11-27T10:31:46.983Z,105.00
2018-11-27T10:34:15.029Z,94.50
2018-11-27T10:36:43.571Z,92.27
2018-11-27T10:39:11.069Z,94.95
2018-11-27T10:41:39.043Z,82.80
2018-11-27T10:44:07.020Z,89.50
2018-11-27T10:46:35.166Z,92.60
2018-11-27T10:49:03.268Z,101.25
2018-11-27T10:51:31.268Z,93.05
2018-11-27T10:53:59.291Z,96.97
2018-11-27T10:56:27.303Z,95.50
2018-11-27T10:58:55.277Z,95.38
2018-11-27T11:01:28.616Z,84.37
2018-11-27T11:03:56.716Z,87.97
2018-11-27T11:06:24.704Z,83.20
2018-11-27T11:08:52.728Z,94.42
2018-11-27T11:11:20.807Z,78.25
2018-11-27T11:13:48.821Z,83.67
2018-11-27T11:16:16.811Z,83.78
2018-11-27T11:18:44.767Z,72.25
2018-11-27T11:21:12.732Z,81.63
2018-11-27T11:23:40.834Z,85.05
2018-11-27T11:26:09.016Z,78.80
2018-11-27T11:28:36.995Z,85.85
2018-11-27T11:31:06.689Z,83.03
2018-11-27T11:33:33.960Z,72.95
2018-11-27T11:36:02.184Z,76.55
2018-11-27T11:38:30.163Z,91.75
2018-11-27T11:40:58.326Z,73.42
2018-11-27T11:43:26.431Z,73.22
2018-11-27T11:45:54.401Z,73.50
2018-11-27T11:48:22.383Z,68.30
2018-11-27T11:50:50.371Z,72.12
2018-11-27T11:53:19.139Z,67.45
2018-11-27T11:55:47.915Z,69.58
2018-11-27T11:58:15.992Z,64.25
2018-11-27T12:00:47.143Z,73.02
2018-11-27T12:03:15.135Z,74.77
2018-11-27T12:05:43.264Z,67.35
2018-11-27T12:08:11.218Z,61.42
2018-11-27T12:10:39.305Z,67.40
2018-11-27T12:13:08.456Z,69.15
2018-11-27T12:15:36.544Z,66.33
2018-11-27T12:18:04.763Z,58.55
2018-11-27T12:20:34.095Z,67.90
2018-11-27T12:23:02.318Z,62.70
2018-11-27T12:25:30.260Z,62.23
2018-11-27T12:27:58.363Z,60.33
2018-11-27T12:30:27.144Z,64.60
2018-11-27T12:32:55.111Z,55.92
2018-11-27T12:35:23.707Z,78.65
2018-11-27T12:37:52.038Z,58.87
2018-11-27T12:40:28.668Z,57.90
2018-11-27T12:42:57.283Z,55.65
2018-11-27T12:45:29.907Z,59.08
2018-11-27T12:47:58.947Z,56.98
2018-11-27T12:50:58.899Z,65.22
2018-11-27T12:53:26.988Z,60.40
2018-11-27T12:55:55.058Z,59.08
2018-11-27T12:58:23.184Z,58.83
2018-11-27T13:00:51.166Z,58.15
2018-11-27T13:03:19.131Z,66.17
2018-11-27T13:05:47.423Z,56.08
2018-11-27T13:08:18.694Z,58.98
2018-11-27T13:10:46.762Z,49.90
2018-11-27T13:13:14.761Z,50.85
2018-11-27T13:15:43.419Z,51.83
2018-11-27T13:18:11.491Z,58.10
2018-11-27T13:20:40.174Z,52.65
2018-11-27T13:23:08.673Z,51.73
2018-11-27T13:25:37.548Z,47.03
2018-11-27T13:28:07.071Z,57.38
2018-11-27T13:30:40.032Z,53.75
2018-11-27T13:33:13.039Z,46.15
2018-11-27T13:35:41.036Z,44.95
2018-11-27T13:38:09.025Z,48.20
2018-11-27T13:40:36.981Z,47.25
2018-11-27T13:43:06.452Z,37.67
2018-11-27T13:45:34.629Z,43.30
2018-11-27T13:48:02.690Z,48.83
2018-11-27T13:50:30.643Z,33.85
2018-11-27T13:52:58.848Z,36.65
2018-11-27T13:55:26.889Z,33.33
2018-11-27T13:57:55.084Z,37.58
2018-11-27T14:00:23.048Z,35.88
2018-11-27T14:02:52.555Z,36.23
2018-11-27T14:05:21.658Z,32.75
2018-11-27T14:07:49.635Z,38.83
2018-11-27T14:10:24.055Z,39.48
2018-11-27T14:12:52.164Z,37.93
2018-11-27T14:15:21.499Z,31.23
2018-11-27T14:17:50.172Z,36.85
2018-11-27T14:20:18.242Z,31.02
2018-11-27T14:22:47.281Z,38.00
2018-11-27T14:25:15.512Z,39.80
2018-11-27T14:27:43.928Z,31.02
2018-11-27T14:30:14.949Z,34.40
2018-11-27T14:32:43.000Z,33.63
2018-11-27T14:35:11.295Z,43.95
2018-11-27T14:37:39.328Z,39.35
2018-11-27T14:40:12.755Z,48.98
2018-11-27T14:42:40.712Z,45.28
2018-11-27T14:45:11.451Z,43.20
2018-11-27T14:47:39.560Z,35.63
2018-11-27T14:50:09.208Z,39.95
2018-11-27T14:52:37.360Z,40.20
2018-11-27T14:55:07.670Z,36.45
2018-11-27T14:57:35.675Z,40.15
2018-11-27T15:00:03.703Z,32.80
2018-11-27T15:02:31.693Z,34.75
2018-11-27T15:04:59.779Z,43.42
2018-11-27T15:07:27.727Z,35.28
2018-11-27T15:09:55.694Z,31.02
2018-11-27T15:12:23.658Z,44.27
2018-11-27T15:14:51.630Z,39.40
2018-11-27T15:17:19.617Z,37.88
2018-11-27T15:19:47.643Z,36.55
2018-11-27T15:22:15.613Z,40.38
2018-11-27T15:24:43.620Z,35.80
2018-11-27T15:27:11.563Z,37.15
2018-11-27T15:29:39.570Z,36.05
2018-11-27T15:32:07.552Z,36.95
2018-11-27T15:34:35.523Z,39.42
2018-11-27T15:37:03.509Z,42.50
2018-11-27T15:39:31.551Z,46.63
2018-11-27T15:41:59.531Z,39.92
2018-11-27T15:44:27.569Z,38.88
2018-11-27T15:46:55.726Z,46.00
2018-11-27T15:49:23.743Z,48.95
2018-11-27T15:51:51.736Z,44.70
2018-11-27T15:54:19.680Z,43.87
2018-11-27T15:56:47.665Z,46.25
2018-11-27T15:59:15.614Z,44.73
2018-11-27T16:01:43.687Z,42.67
2018-11-27T16:04:11.756Z,42.98
2018-11-27T16:06:39.755Z,44.80
2018-11-27T16:09:11.018Z,52.65
2018-11-27T16:11:39.332Z,44.85
2018-11-27T16:14:07.628Z,47.15
2018-11-27T16:16:35.715Z,54.15
2018-11-27T16:19:03.747Z,49.90
2018-11-27T16:21:31.691Z,49.10
2018-11-27T16:23:59.675Z,49.80
2018-11-27T16:26:27.782Z,44.10
2018-11-27T16:28:55.749Z,46.28
2018-11-27T16:31:23.727Z,45.90
2018-11-27T16:33:51.679Z,64.62
2018-11-27T16:36:19.751Z,46.95
2018-11-27T16:38:47.701Z,44.67
2018-11-27T16:41:15.698Z,50.50
2018-11-27T16:43:43.694Z,41.77
2018-11-27T16:46:11.932Z,42.35
2018-11-27T16:48:39.919Z,46.77
2018-11-27T16:51:08.011Z,49.60
2018-11-27T16:53:36.034Z,47.35
2018-11-27T16:56:04.014Z,46.83
2018-11-27T16:58:32.082Z,45.45
2018-11-27T17:01:00.076Z,46.37
2018-11-27T17:03:28.021Z,44.27
2018-11-27T17:05:56.016Z,46.83
2018-11-27T17:08:24.006Z,47.15
2018-11-27T17:10:51.994Z,52.38
2018-11-27T17:13:19.975Z,52.03
2018-11-27T17:15:48.327Z,47.93
2018-11-27T17:18:16.339Z,53.25
2018-11-27T17:20:45.260Z,48.25
2018-11-27T17:23:14.521Z,47.85
2018-11-27T17:25:42.497Z,46.25
2018-11-27T17:28:15.025Z,49.80
2018-11-27T17:30:53.324Z,55.17
2018-11-27T17:33:25.573Z,58.63
2018-11-27T17:35:53.528Z,52.55
2018-11-27T17:38:21.462Z,50.30
2018-11-27T17:40:49.466Z,49.13
2018-11-27T17:43:17.474Z,54.40
2018-11-27T17:45:45.486Z,48.75
2018-11-27T17:48:13.438Z,54.23
2018-11-27T17:50:41.473Z,56.02
2018-11-27T17:53:10.102Z,57.15
2018-11-27T17:55:38.096Z,51.40
2018-11-27T17:58:06.444Z,51.95
2018-11-27T18:00:34.436Z,47.30
2018-11-27T18:03:05.275Z,53.40
2018-11-27T18:05:33.190Z,54.40
2018-11-27T18:08:01.215Z,44.50
2018-11-27T18:10:29.174Z,50.35
2018-11-27T18:12:57.312Z,46.18
2018-11-27T18:15:25.291Z,47.65
2018-11-27T18:17:53.390Z,46.53
2018-11-27T18:20:21.394Z,53.45
2018-11-27T18:22:49.367Z,53.73
2018-11-27T18:25:18.556Z,51.23
2018-11-27T18:27:47.583Z,51.13
2018-11-27T18:30:16.448Z,56.75
2018-11-27T18:32:44.447Z,55.45
2018-11-27T18:35:14.567Z,50.85
2018-11-27T18:37:42.720Z,55.40
2018-11-27T18:40:11.682Z,57.15
2018-11-27T18:42:40.051Z,55.45
2018-11-27T18:45:15.041Z,49.30
2018-11-27T18:47:43.127Z,53.50
2018-11-27T18:50:11.656Z,60.43
2018-11-27T18:52:39.907Z,54.90
2018-11-27T18:55:09.312Z,51.48
2018-11-27T18:57:37.383Z,54.83
2018-11-27T19:00:15.826Z,57.38
2018-11-27T19:02:43.834Z,52.90
2018-11-27T19:05:11.856Z,51.75
2018-11-27T19:07:39.855Z,49.65
2018-11-27T19:10:09.853Z,53.35
2018-11-27T19:12:37.912Z,51.23
2018-11-27T19:15:09.852Z,58.50
2018-11-27T19:17:37.795Z,58.87
2018-11-27T19:20:10.301Z,57.00
2018-11-27T19:22:38.288Z,50.78
2018-11-27T19:25:08.090Z,55.78
2018-11-27T19:27:36.171Z,55.25
2018-11-27T19:30:07.791Z,63.25
2018-11-27T19:32:35.888Z,59.05
2018-11-27T19:35:03.878Z,52.00
2018-11-27T19:37:31.822Z,57.55
2018-11-27T19:39:59.790Z,54.50
2018-11-27T19:42:27.792Z,52.35
2018-11-27T19:44:55.801Z,61.40
2018-11-27T19:47:23.783Z,56.83
2018-11-27T19:49:51.810Z,57.00
2018-11-27T19:52:20.607Z,59.10
2018-11-27T19:54:48.600Z,69.45
2018-11-27T19:57:16.559Z,64.22
2018-11-27T19:59:44.527Z,66.00
2018-11-27T20:02:12.505Z,55.25
2018-11-27T20:04:40.618Z,72.75
2018-11-27T20:07:08.599Z,68.80
2018-11-27T20:09:36.606Z,60.12
2018-11-27T20:12:04.916Z,67.00
2018-11-27T20:14:32.991Z,67.62
2018-11-27T20:17:01.012Z,62.67
2018-11-27T20:19:29.018Z,68.60
2018-11-27T20:21:56.999Z,70.75
2018-11-27T20:24:25.070Z,64.15
2018-11-27T20:26:53.091Z,68.20
2018-11-27T20:29:21.132Z,65.55
2018-11-27T20:31:49.099Z,67.40
2018-11-27T20:34:17.180Z,61.50
2018-11-27T20:36:45.147Z,66.25
2018-11-27T20:39:13.261Z,68.78
2018-11-27T20:41:41.228Z,59.03
2018-11-27T20:44:09.247Z,70.72
2018-11-27T20:46:37.224Z,59.38
2018-11-27T20:49:06.083Z,63.87
2018-11-27T20:51:34.138Z,61.63
2018-11-27T20:54:02.162Z,68.83
2018-11-27T20:56:30.165Z,66.45
2018-11-27T20:58:58.182Z,65.28
2018-11-27T21:01:26.170Z,63.95
2018-11-27T21:03:54.141Z,59.73
2018-11-27T21:06:22.305Z,64.97
2018-11-27T21:08:50.419Z,65.83
2018-11-27T21:11:18.390Z,69.15
2018-11-27T21:13:46.382Z,66.65
2018-11-27T21:16:14.367Z,75.78
2018-11-27T21:18:42.351Z,71.85
2018-11-27T21:21:10.356Z,68.87
2018-11-27T21:23:38.333Z,83.58
2018-11-27T21:26:06.528Z,63.98
2018-11-27T21:28:34.743Z,77.12
2018-11-27T21:31:03.906Z,63.17
2018-11-27T21:33:31.924Z,75.92
2018-11-27T21:35:59.868Z,73.50
2018-11-27T21:38:27.889Z,71.02
2018-11-27T21:40:55.849Z,70.45
2018-11-27T21:43:23.916Z,74.90
2018-11-27T21:45:51.890Z,76.80
2018-11-27T21:48:19.985Z,67.80
2018-11-27T21:50:48.094Z,72.25
2018-11-27T21:53:16.408Z,68.65
2018-11-27T21:55:44.383Z,71.85
2018-11-27T21:58:12.448Z,70.28
2018-11-27T22:00:41.567Z,80.10
2018-11-27T22:03:10.543Z,71.95
2018-11-27T22:05:38.505Z,75.05
2018-11-27T22:08:07.388Z,69.62
2018-11-27T22:10:35.378Z,78.00
2018-11-27T22:13:03.372Z,79.20
2018-11-27T22:15:35.754Z,75.65
2018-11-27T22:18:04.800Z,75.42
2018-11-27T22:20:32.814Z,77.08
2018-11-27T22:23:00.842Z,76.00
2018-11-27T22:25:28.813Z,74.53
2018-11-27T22:27:56.807Z,78.37
2018-11-27T22:30:24.785Z,74.65
2018-11-27T22:32:54.396Z,76.40
2018-11-27T22:35:22.421Z,83.72
2018-11-27T22:37:50.390Z,75.95
2018-11-27T22:40:20.454Z,73.30
2018-11-27T22:42:49.220Z,73.00
2018-11-27T22:45:20.439Z,80.17
2018-11-27T22:47:48.399Z,74.75
2018-11-27T22:50:17.316Z,76.92
2018-11-27T22:52:45.284Z,71.42
2018-11-27T22:55:13.322Z,68.60
2018-11-27T22:57:41.539Z,77.78
2018-11-27T23:00:20.482Z,79.25
2018-11-27T23:02:48.939Z,74.95
2018-11-27T23:05:17.476Z,72.35
2018-11-27T23:07:45.471Z,75.78
2018-11-27T23:10:14.013Z,73.67
2018-11-27T23:12:42.004Z,72.92
2018-11-27T23:15:13.048Z,85.45
2018-11-27T23:17:41.035Z,70.08
2018-11-27T23:20:11.589Z,82.00
2018-11-27T23:22:39.634Z,80.42
2018-11-27T23:25:12.721Z,72.55
2018-11-27T23:27:40.803Z,74.53
2018-11-27T23:30:11.434Z,73.45
2018-11-27T23:32:39.626Z,72.37
2018-11-27T23:35:07.635Z,67.60
2018-11-27T23:37:35.707Z,74.67
2018-11-27T23:40:04.040Z,77.90
2018-11-27T23:42:31.995Z,75.67
2018-11-27T23:44:59.967Z,77.15
2018-11-27T23:47:27.937Z,72.30
2018-11-27T23:49:55.904Z,80.20
2018-11-27T23:52:23.899Z,88.70
2018-11-27T23:54:51.864Z,74.72
2018-11-27T23:57:19.984Z,73.42
2018-11-27T23:59:48.006Z,72.90
